Time;durP1;ratioP1;P1;durP2;ratioP2;P2;SDS_P1;SDS_P2;PMS_P1;PMS_P2;Temp;Humidity;BMP_temperature;BMP_pressure;BME280_temperature;BME280_humidity;BME280_pressure;Samples;Min_cycle;Max_cycle;Signal;HPM_P1;HPM_P2
2023/05/12 00:02:16;;;;;;;12.40;11.20;;;11.20;1.00;;;;;;5024616;28;20228;-50
2023/05/12 00:04:42;;;;;;;13.50;11.20;;;11.20;1.00;;;;;;5023267;28;20195;-50
2023/05/12 00:07:07;;;;;;;12.53;10.67;;;11.20;1.00;;;;;;5026845;28;20187;-50
2023/05/12 00:09:33;;;;;;;15.00;10.80;;;11.20;1.00;;;;;;5028426;28;20176;-50
2023/05/12 00:11:59;;;;;;;12.70;10.90;;;11.10;1.00;;;;;;5031944;28;20183;-50
2023/05/12 00:14:24;;;;;;;11.13;10.03;;;11.20;1.00;;;;;;5027582;28;20277;-50
2023/05/12 00:16:50;;;;;;;13.53;10.27;;;11.20;1.00;;;;;;5029379;28;20201;-50
2023/05/12 00:19:17;;;;;;;12.53;10.40;;;11.20;1.00;;;;;;5028609;28;20199;-50
2023/05/12 00:21:42;;;;;;;11.60;10.20;;;11.30;1.00;;;;;;5030704;28;20191;-50
2023/05/12 00:24:08;;;;;;;11.43;10.07;;;11.40;1.00;;;;;;5029372;28;20497;-50
2023/05/12 00:26:34;;;;;;;9.90;8.87;;;11.40;1.00;;;;;;5029591;28;20195;-51
2023/05/12 00:28:59;;;;;;;13.00;8.80;;;11.50;99.90;;;;;;5032876;28;20219;-51
2023/05/12 00:31:25;;;;;;;10.53;8.90;;;11.50;99.90;;;;;;5027274;28;20184;-51
2023/05/12 00:33:51;;;;;;;13.60;9.17;;;11.50;1.00;;;;;;5025133;28;20188;-51
2023/05/12 00:36:16;;;;;;;11.80;9.00;;;11.60;99.90;;;;;;5027369;28;20239;-50
2023/05/12 00:38:42;;;;;;;9.73;8.60;;;11.60;1.00;;;;;;5028541;28;20270;-50
2023/05/12 00:41:08;;;;;;;12.13;8.70;;;11.60;1.00;;;;;;5029086;28;20291;-49
2023/05/12 00:43:33;;;;;;;9.90;8.90;;;11.70;99.90;;;;;;5027858;28;20190;-51
2023/05/12 00:46:01;;;;;;;10.47;8.13;;;11.70;1.00;;;;;;5028934;28;20294;-50
2023/05/12 00:48:27;;;;;;;10.53;8.70;;;11.70;99.90;;;;;;5026757;28;20188;-50
2023/05/12 00:50:54;;;;;;;12.90;9.27;;;11.70;1.00;;;;;;5026955;28;20565;-50
2023/05/12 00:53:19;;;;;;;10.90;8.93;;;11.70;99.90;;;;;;5027135;28;20242;-50
2023/05/12 00:55:45;;;;;;;10.20;9.27;;;11.80;99.90;;;;;;5028883;28;20481;-50
2023/05/12 00:58:11;;;;;;;8.43;7.63;;;11.80;1.00;;;;;;5027399;28;20882;-49
2023/05/12 01:00:36;;;;;;;10.47;8.80;;;11.80;1.00;;;;;;5028714;28;20218;-51
2023/05/12 01:03:03;;;;;;;9.50;8.60;;;11.80;1.00;;;;;;5026973;28;20544;-50
2023/05/12 01:05:40;;;;;;;10.97;8.73;;;11.80;1.00;;;;;;5028789;28;20195;-49
2023/05/12 01:08:07;;;;;;;9.40;8.00;;;11.80;99.90;;;;;;5024988;28;20953;-50
2023/05/12 01:10:32;;;;;;;8.83;7.93;;;11.90;99.90;;;;;;5028541;28;21022;-50
2023/05/12 01:12:58;;;;;;;9.60;8.60;;;11.80;99.90;;;;;;5026524;28;20470;-50
2023/05/12 01:15:24;;;;;;;9.63;8.07;;;11.90;99.90;;;;;;5028068;28;20310;-50
2023/05/12 01:17:57;;;;;;;9.47;8.47;;;11.90;59.50;;;;;;5026330;28;20188;-50
2023/05/12 01:20:25;;;;;;;8.80;7.90;;;11.90;1.00;;;;;;5025167;28;20191;-50
2023/05/12 01:22:51;;;;;;;10.87;8.27;;;11.90;1.00;;;;;;5028164;28;20434;-50
2023/05/12 01:25:21;;;;;;;9.40;8.50;;;12.00;1.00;;;;;;5028233;28;21534;-50
2023/05/12 01:27:48;;;;;;;9.20;8.33;;;12.00;1.00;;;;;;5025757;28;20431;-50
2023/05/12 01:30:18;;;;;;;9.90;8.90;;;12.00;1.00;;;;;;5024539;28;20454;-50
2023/05/12 01:32:44;;;;;;;9.83;8.83;;;12.00;99.90;;;;;;5028656;28;20434;-50
2023/05/12 01:35:09;;;;;;;9.00;8.10;;;12.00;99.90;;;;;;5025236;28;20477;-50
2023/05/12 01:37:35;;;;;;;9.03;8.07;;;12.00;99.90;;;;;;5028220;28;20500;-52
2023/05/12 01:40:01;;;;;;;10.73;8.83;;;12.00;99.90;;;;;;5029159;28;20347;-50
2023/05/12 01:42:27;;;;;;;12.93;9.23;;;12.00;99.90;;;;;;5025906;28;20199;-49
2023/05/12 01:44:52;;;;;;;10.10;8.87;;;12.10;99.90;;;;;;5025707;28;20188;-50
2023/05/12 01:47:19;;;;;;;11.10;9.07;;;12.00;99.90;;;;;;5027247;28;20191;-50
2023/05/12 01:49:45;;;;;;;10.43;8.50;;;12.00;99.90;;;;;;5027975;28;20238;-50
2023/05/12 01:52:10;;;;;;;9.60;8.70;;;12.00;99.90;;;;;;5026634;28;20435;-49
2023/05/12 01:54:36;;;;;;;11.50;8.30;;;12.10;58.20;;;;;;5025949;28;20282;-50
2023/05/12 01:57:01;;;;;;;9.23;8.30;;;12.00;50.40;;;;;;5027454;28;20199;-50
2023/05/12 01:59:27;;;;;;;9.23;8.20;;;12.10;26.30;;;;;;5024875;28;20271;-50
2023/05/12 02:01:53;;;;;;;8.50;7.67;;;12.00;1.00;;;;;;5027161;28;20280;-49
2023/05/12 02:04:18;;;;;;;9.17;8.17;;;12.10;1.00;;;;;;5024933;28;20206;-50
2023/05/12 02:06:44;;;;;;;8.83;8.00;;;12.10;1.00;;;;;;5027598;28;20521;-50
2023/05/12 02:09:09;;;;;;;8.53;7.73;;;12.10;1.00;;;;;;5026654;28;20187;-50
2023/05/12 02:11:36;;;;;;;8.50;7.70;;;12.10;1.00;;;;;;5026577;28;20199;-50
2023/05/12 02:14:01;;;;;;;11.10;8.00;;;12.10;1.00;;;;;;5025176;28;20687;-51
2023/05/12 02:16:27;;;;;;;9.20;8.30;;;12.10;74.00;;;;;;5030483;28;20438;-51
2023/05/12 02:18:52;;;;;;;9.70;8.70;;;12.10;1.00;;;;;;5028083;28;20192;-51
2023/05/12 02:21:18;;;;;;;16.90;14.60;;;12.10;1.00;;;;;;5026540;28;20673;-49
2023/05/12 02:23:44;;;;;;;19.77;13.73;;;12.00;1.00;;;;;;5027785;28;20183;-50
2023/05/12 02:26:09;;;;;;;19.27;13.73;;;12.10;1.00;;;;;;5025891;28;20179;-51
2023/05/12 02:28:35;;;;;;;26.03;18.63;;;12.10;64.20;;;;;;5026762;28;20259;-49
2023/05/12 02:31:01;;;;;;;17.53;12.97;;;12.10;99.90;;;;;;5025352;28;20249;-50
2023/05/12 02:33:26;;;;;;;10.63;9.43;;;12.10;74.50;;;;;;5022900;28;20651;-50
2023/05/12 02:35:52;;;;;;;11.20;10.00;;;12.00;2.80;;;;;;5026097;28;20562;-49
2023/05/12 02:38:17;;;;;;;11.40;10.20;;;12.00;1.00;;;;;;5026087;28;20596;-50
2023/05/12 02:40:43;;;;;;;9.67;8.60;;;12.10;1.00;;;;;;5026355;28;20192;-50
2023/05/12 02:43:08;;;;;;;9.33;8.43;;;12.00;51.40;;;;;;5024472;28;20275;-50
2023/05/12 02:45:34;;;;;;;13.90;8.90;;;12.00;30.90;;;;;;5027305;28;20608;-50
2023/05/12 02:48:00;;;;;;;11.20;9.60;;;12.00;99.90;;;;;;5024626;28;20194;-50
2023/05/12 02:50:25;;;;;;;10.10;9.00;;;12.00;99.90;;;;;;5025336;28;20230;-49
2023/05/12 02:52:51;;;;;;;11.63;9.03;;;12.00;99.90;;;;;;5023721;28;20223;-49
2023/05/12 02:55:17;;;;;;;9.50;8.27;;;12.00;99.90;;;;;;5025608;28;20223;-50
2023/05/12 02:57:43;;;;;;;9.70;8.77;;;12.00;99.90;;;;;;5023619;28;20798;-51
2023/05/12 03:00:09;;;;;;;9.13;8.23;;;12.00;99.90;;;;;;5025703;28;20305;-50
2023/05/12 03:02:38;;;;;;;10.00;8.53;;;11.90;99.90;;;;;;5025223;28;20445;-50
2023/05/12 03:05:04;;;;;;;10.10;9.10;;;11.90;99.90;;;;;;5023588;28;20438;-51
2023/05/12 03:07:30;;;;;;;11.83;9.20;;;11.90;1.00;;;;;;5025485;28;20438;-50
2023/05/12 03:09:57;;;;;;;11.23;8.70;;;11.90;1.00;;;;;;5025664;28;20446;-50
2023/05/12 03:12:22;;;;;;;10.70;8.30;;;11.90;1.00;;;;;;5024669;28;20446;-49
2023/05/12 03:14:48;;;;;;;11.40;9.70;;;11.90;1.00;;;;;;5024034;28;20477;-50
2023/05/12 03:17:13;;;;;;;9.30;8.43;;;11.90;1.00;;;;;;5026248;28;20701;-50
2023/05/12 03:19:39;;;;;;;11.90;9.50;;;11.90;1.00;;;;;;5025729;28;20635;-49
2023/05/12 03:22:06;;;;;;;9.73;8.80;;;11.90;1.00;;;;;;5025504;28;20195;-50
2023/05/12 03:24:32;;;;;;;10.63;9.53;;;11.90;1.00;;;;;;5026863;28;20195;-49
2023/05/12 03:26:59;;;;;;;10.00;9.00;;;11.90;1.00;;;;;;5025598;28;20438;-50
2023/05/12 03:29:25;;;;;;;11.53;10.00;;;11.90;99.90;;;;;;5027509;28;20438;-51
2023/05/12 03:31:51;;;;;;;10.13;9.13;;;11.90;99.90;;;;;;5023294;28;20442;-49
2023/05/12 03:34:16;;;;;;;10.00;8.30;;;11.90;99.90;;;;;;5025514;28;20798;-48
2023/05/12 03:36:42;;;;;;;10.73;9.63;;;11.90;99.90;;;;;;5024569;28;20192;-49
2023/05/12 03:39:08;;;;;;;10.17;9.27;;;11.90;99.90;;;;;;5023420;28;20712;-50
2023/05/12 03:41:34;;;;;;;10.77;8.77;;;11.90;1.00;;;;;;5026016;28;20194;-51
2023/05/12 03:44:00;;;;;;;9.70;8.70;;;11.90;1.00;;;;;;5024307;28;20496;-51
2023/05/12 03:46:26;;;;;;;13.13;9.57;;;11.90;99.90;;;;;;5026301;28;20450;-51
2023/05/12 03:48:52;;;;;;;9.77;8.77;;;11.90;99.90;;;;;;5020507;28;20296;-50
2023/05/12 03:51:17;;;;;;;10.10;9.10;;;11.90;99.90;;;;;;5020345;28;20236;-51
2023/05/12 03:53:45;;;;;;;10.77;8.93;;;11.90;99.90;;;;;;5023003;28;20955;-51
2023/05/12 03:56:11;;;;;;;10.90;9.80;;;11.90;99.90;;;;;;5024205;28;20234;-51
2023/05/12 03:58:36;;;;;;;10.43;9.10;;;11.90;1.00;;;;;;5024314;28;20435;-51
2023/05/12 04:01:02;;;;;;;9.70;8.80;;;11.90;1.00;;;;;;5024217;28;20707;-51
2023/05/12 04:03:28;;;;;;;11.00;9.20;;;11.90;99.90;;;;;;5024317;28;20553;-51
2023/05/12 04:06:01;;;;;;;10.37;9.27;;;12.00;99.90;;;;;;5024197;28;20218;-51
2023/05/12 04:08:27;;;;;;;9.30;8.33;;;12.00;99.90;;;;;;5027731;28;20682;-50
2023/05/12 04:10:58;;;;;;;10.00;9.00;;;12.00;99.90;;;;;;5026689;28;20439;-50
2023/05/12 04:13:24;;;;;;;10.37;9.43;;;12.00;99.90;;;;;;5023578;28;20431;-51
2023/05/12 04:15:50;;;;;;;10.17;9.07;;;12.10;99.90;;;;;;5026367;28;20588;-51
2023/05/12 04:18:16;;;;;;;10.70;8.30;;;12.10;99.90;;;;;;5023860;28;20460;-51
2023/05/12 04:20:43;;;;;;;9.60;8.70;;;12.10;99.90;;;;;;5026436;28;20496;-51
2023/05/12 04:23:08;;;;;;;9.73;8.70;;;12.10;99.90;;;;;;5023052;28;20487;-51
2023/05/12 04:25:38;;;;;;;8.83;8.03;;;12.20;99.90;;;;;;5024817;28;20437;-51
2023/05/12 04:28:04;;;;;;;10.53;9.07;;;12.20;99.90;;;;;;5025167;28;20254;-51
2023/05/12 04:30:30;;;;;;;11.17;9.60;;;12.20;99.90;;;;;;5020543;28;20430;-51
2023/05/12 04:32:55;;;;;;;11.37;7.93;;;12.20;99.90;;;;;;5025650;28;20183;-51
2023/05/12 04:35:21;;;;;;;9.07;8.23;;;12.30;99.90;;;;;;5023051;28;20225;-50
2023/05/12 04:37:47;;;;;;;10.90;9.20;;;12.30;99.90;;;;;;5024803;28;20180;-50
2023/05/12 04:40:13;;;;;;;9.60;8.70;;;12.40;99.90;;;;;;5024155;28;20697;-50
2023/05/12 04:42:39;;;;;;;10.13;9.13;;;12.40;99.90;;;;;;5025564;28;20442;-51
2023/05/12 04:45:06;;;;;;;9.70;8.70;;;12.40;99.90;;;;;;5025747;28;20257;-50
2023/05/12 04:47:31;;;;;;;9.77;8.87;;;12.50;60.40;;;;;;5024335;28;20237;-50
2023/05/12 04:49:57;;;;;;;10.50;8.30;;;12.60;99.30;;;;;;5025036;28;20853;-51
2023/05/12 04:52:23;;;;;;;9.10;8.20;;;12.60;96.10;;;;;;5023664;28;20633;-50
2023/05/12 04:54:49;;;;;;;10.60;9.30;;;12.70;99.70;;;;;;5024879;28;20230;-51
2023/05/12 04:57:15;;;;;;;10.20;9.10;;;12.70;1.00;;;;;;5024569;28;20439;-51
2023/05/12 04:59:41;;;;;;;10.30;9.10;;;12.80;99.90;;;;;;5028221;28;20188;-51
2023/05/12 05:02:07;;;;;;;10.40;8.90;;;12.90;93.10;;;;;;5026693;28;20196;-51
2023/05/12 05:04:33;;;;;;;13.40;8.90;;;13.00;99.90;;;;;;5028272;28;20771;-52
2023/05/12 05:06:59;;;;;;;10.53;8.60;;;13.00;99.90;;;;;;5026228;28;20450;-50
2023/05/12 05:09:24;;;;;;;12.90;9.43;;;13.10;99.90;;;;;;5026588;28;20195;-52
2023/05/12 05:11:50;;;;;;;10.60;9.50;;;13.20;99.90;;;;;;5028305;28;20187;-50
2023/05/12 05:14:15;;;;;;;12.80;8.93;;;13.30;99.90;;;;;;5026151;28;20655;-51
2023/05/12 05:16:41;;;;;;;10.80;8.70;;;13.40;99.90;;;;;;5023651;28;20181;-50
2023/05/12 05:19:06;;;;;;;12.10;9.00;;;13.50;99.90;;;;;;5026617;28;20183;-51
2023/05/12 05:21:33;;;;;;;9.80;8.50;;;13.60;99.90;;;;;;5027313;28;20753;-50
2023/05/12 05:23:59;;;;;;;11.20;9.37;;;13.70;99.90;;;;;;5028429;28;20534;-51
2023/05/12 05:26:24;;;;;;;10.50;8.60;;;13.80;99.90;;;;;;5026012;28;20452;-51
2023/05/12 05:28:53;;;;;;;11.17;9.10;;;13.80;99.90;;;;;;5028950;28;20227;-50
2023/05/12 05:31:20;;;;;;;9.23;8.23;;;13.90;1.00;;;;;;5027113;28;20191;-51
2023/05/12 05:33:46;;;;;;;9.90;8.00;;;13.90;99.90;;;;;;5028204;28;20434;-51
2023/05/12 05:36:12;;;;;;;9.83;8.83;;;14.00;99.90;;;;;;5023740;28;20540;-51
2023/05/12 05:38:37;;;;;;;11.20;8.50;;;14.00;99.90;;;;;;5028255;28;20382;-51
2023/05/12 05:41:03;;;;;;;10.00;8.03;;;14.10;1.00;;;;;;5025586;28;20189;-51
2023/05/12 05:43:29;;;;;;;13.90;8.23;;;14.20;1.00;;;;;;5026005;28;20195;-51
2023/05/12 05:45:56;;;;;;;8.70;7.73;;;14.30;1.00;;;;;;5026571;28;20440;-51
2023/05/12 05:48:25;;;;;;;8.00;7.20;;;14.30;99.90;;;;;;5024287;28;20254;-51
2023/05/12 05:50:52;;;;;;;9.70;8.70;;;14.50;99.90;;;;;;5025076;28;20476;-51
2023/05/12 05:53:21;;;;;;;8.57;7.67;;;14.60;99.90;;;;;;5024195;28;20559;-51
2023/05/12 05:55:50;;;;;;;12.40;8.10;;;14.70;99.90;;;;;;5028100;28;20474;-51
2023/05/12 05:58:15;;;;;;;10.33;8.17;;;14.70;99.90;;;;;;5028368;28;20439;-51
2023/05/12 06:00:42;;;;;;;10.70;8.27;;;14.80;99.90;;;;;;5025140;28;20435;-51
2023/05/12 06:03:08;;;;;;;9.40;7.50;;;15.00;97.90;;;;;;5026100;28;20353;-51
2023/05/12 06:05:34;;;;;;;14.93;8.30;;;15.10;41.60;;;;;;5023907;28;20947;-52
2023/05/12 06:07:59;;;;;;;10.07;7.67;;;15.20;14.80;;;;;;5026814;28;20470;-51
2023/05/12 06:10:25;;;;;;;8.73;7.10;;;15.40;1.00;;;;;;5026644;28;20553;-52
2023/05/12 06:12:51;;;;;;;9.13;7.73;;;15.50;1.00;;;;;;5026243;28;20640;-52
2023/05/12 06:15:17;;;;;;;10.97;7.60;;;15.60;1.00;;;;;;5025105;28;20316;-52
2023/05/12 06:17:43;;;;;;;13.00;8.17;;;15.80;1.00;;;;;;5025749;28;20196;-53
2023/05/12 06:20:09;;;;;;;10.07;6.97;;;15.90;1.00;;;;;;5024738;28;20442;-52
2023/05/12 06:22:35;;;;;;;8.80;7.90;;;16.10;1.00;;;;;;5025898;28;20435;-53
2023/05/12 06:25:01;;;;;;;11.50;7.63;;;16.20;1.00;;;;;;5025218;28;20432;-52
2023/05/12 06:27:27;;;;;;;9.90;6.88;;;16.30;1.00;;;;;;5026751;28;20510;-52
2023/05/12 06:29:52;;;;;;;8.07;7.33;;;16.40;1.00;;;;;;5026642;28;20597;-52
2023/05/12 06:32:18;;;;;;;7.53;6.80;;;16.60;1.00;;;;;;5026728;28;20668;-52
2023/05/12 06:34:44;;;;;;;8.30;7.43;;;16.70;1.00;;;;;;5026341;28;20557;-52
2023/05/12 06:37:09;;;;;;;9.80;7.53;;;16.80;1.00;;;;;;5027879;28;20198;-51
2023/05/12 06:39:35;;;;;;;8.43;6.97;;;16.90;1.00;;;;;;5026604;28;20206;-52
2023/05/12 06:42:01;;;;;;;10.13;6.60;;;17.10;1.00;;;;;;5027798;28;20196;-53
2023/05/12 06:44:26;;;;;;;8.63;6.53;;;17.30;1.00;;;;;;5023826;28;20645;-52
2023/05/12 06:46:52;;;;;;;8.93;6.73;;;17.40;1.00;;;;;;5025148;28;20195;-53
2023/05/12 06:49:18;;;;;;;10.40;6.50;;;17.50;1.00;;;;;;5025253;28;22225;-52
2023/05/12 06:51:43;;;;;;;8.97;7.60;;;17.60;1.00;;;;;;5026630;28;20801;-53
2023/05/12 06:54:09;;;;;;;8.00;6.77;;;17.60;1.00;;;;;;5025240;28;20269;-52
2023/05/12 06:56:35;;;;;;;7.97;6.70;;;17.70;1.00;;;;;;5026092;28;20230;-53
2023/05/12 06:59:01;;;;;;;11.70;7.30;;;17.70;1.00;;;;;;5025788;28;20206;-53
2023/05/12 07:01:31;;;;;;;14.73;6.90;;;17.60;1.00;;;;;;5024696;28;20601;-53
2023/05/12 07:03:57;;;;;;;7.20;6.17;;;17.70;1.00;;;;;;5026440;28;20469;-53
2023/05/12 07:06:26;;;;;;;7.00;6.20;;;17.80;1.00;;;;;;5025519;28;20444;-52
2023/05/12 07:08:52;;;;;;;8.50;6.70;;;17.80;1.00;;;;;;5026370;28;20436;-53
2023/05/12 07:11:19;;;;;;;6.50;5.90;;;17.90;1.00;;;;;;5025631;28;20496;-54
2023/05/12 07:13:51;;;;;;;11.90;7.20;;;18.00;1.00;;;;;;5027224;28;20551;-53
2023/05/12 07:16:17;;;;;;;10.80;7.20;;;18.20;1.00;;;;;;5023876;28;20545;-53
2023/05/12 07:18:44;;;;;;;9.17;6.30;;;18.40;1.00;;;;;;5026373;28;20451;-52
2023/05/12 07:21:10;;;;;;;8.90;6.90;;;18.60;1.00;;;;;;5025464;28;20829;-53
2023/05/12 07:23:36;;;;;;;11.13;6.50;;;18.70;1.00;;;;;;5027912;28;20437;-52
2023/05/12 07:26:03;;;;;;;9.77;5.90;;;18.90;1.00;;;;;;5025418;28;20518;-53
2023/05/12 07:28:36;;;;;;;13.03;6.10;;;18.80;1.00;;;;;;5026905;28;20441;-53
2023/05/12 07:31:06;;;;;;;9.60;6.37;;;18.90;1.00;;;;;;5024749;28;20434;-54
2023/05/12 07:33:32;;;;;;;9.43;6.47;;;19.10;1.00;;;;;;5022666;28;20472;-53
2023/05/12 07:35:57;;;;;;;8.70;6.20;;;19.30;1.00;;;;;;5027399;28;20583;-53
2023/05/12 07:38:23;;;;;;;10.63;6.20;;;19.50;1.00;;;;;;5023486;28;21024;-54
2023/05/12 07:40:49;;;;;;;7.77;5.93;;;19.60;1.00;;;;;;5025925;28;20205;-53
2023/05/12 07:43:16;;;;;;;8.80;6.27;;;19.80;1.00;;;;;;5025293;28;20226;-53
2023/05/12 07:45:42;;;;;;;10.30;7.10;;;19.80;1.00;;;;;;5025954;28;20195;-53
2023/05/12 07:48:07;;;;;;;9.27;6.20;;;20.00;1.00;;;;;;5026622;28;20441;-53
2023/05/12 07:50:33;;;;;;;8.50;6.47;;;20.30;1.00;;;;;;5024330;28;20278;-54
2023/05/12 07:52:59;;;;;;;8.13;5.87;;;20.30;1.00;;;;;;5026990;28;20190;-54
2023/05/12 07:55:25;;;;;;;8.50;5.83;;;20.30;1.00;;;;;;5022661;28;20677;-53
2023/05/12 07:57:50;;;;;;;8.87;5.83;;;20.20;1.00;;;;;;5026821;28;20214;-54
2023/05/12 08:00:17;;;;;;;6.80;6.10;;;20.20;1.00;;;;;;5023306;28;20206;-54
2023/05/12 08:02:43;;;;;;;7.37;6.00;;;20.20;1.00;;;;;;5024607;28;20198;-54
2023/05/12 08:05:09;;;;;;;9.60;6.00;;;20.30;1.00;;;;;;5024805;28;20813;-53
2023/05/12 08:07:36;;;;;;;6.80;6.17;;;20.20;1.00;;;;;;5025086;28;20225;-55
2023/05/12 08:10:02;;;;;;;7.60;6.10;;;20.20;1.00;;;;;;5025049;28;20506;-53
2023/05/12 08:12:28;;;;;;;9.53;6.47;;;20.40;1.00;;;;;;5023892;28;20442;-54
2023/05/12 08:14:54;;;;;;;6.90;5.93;;;20.50;1.00;;;;;;5026796;28;20882;-54
2023/05/12 08:17:19;;;;;;;8.77;6.13;;;20.70;1.00;;;;;;5022974;28;20652;-54
2023/05/12 08:19:45;;;;;;;9.13;5.77;;;21.00;1.00;;;;;;5021285;28;20199;-56
2023/05/12 08:22:10;;;;;;;6.37;5.63;;;21.20;1.00;;;;;;5010782;28;20192;-54
2023/05/12 08:24:36;;;;;;;8.00;5.70;;;21.40;1.00;;;;;;5025149;28;20520;-54
2023/05/12 08:27:02;;;;;;;7.07;6.03;;;21.60;1.00;;;;;;5022741;28;20194;-55
2023/05/12 08:29:27;;;;;;;8.07;5.10;;;21.80;1.00;;;;;;5028432;28;20433;-55
2023/05/12 08:31:53;;;;;;;15.83;6.40;;;22.20;1.00;;;;;;5029402;28;20847;-54
2023/05/12 08:34:18;;;;;;;8.20;6.30;;;22.30;1.00;;;;;;5026946;28;20249;-54
2023/05/12 08:36:44;;;;;;;6.77;5.20;;;22.50;1.00;;;;;;5029777;28;20599;-53
2023/05/12 08:39:11;;;;;;;7.67;5.73;;;22.80;1.00;;;;;;5027663;28;20185;-52
2023/05/12 08:42:12;;;;;;;6.50;5.90;;;23.40;1.00;;;;;;5028849;28;20550;-51
2023/05/12 08:44:38;;;;;;;7.73;5.33;;;24.50;1.00;;;;;;5026750;28;20834;-53
2023/05/12 08:47:05;;;;;;;8.53;5.83;;;25.80;1.00;;;;;;5028470;28;20482;-53
2023/05/12 08:49:33;;;;;;;9.90;5.90;;;26.10;1.00;;;;;;5022766;28;20798;-53
2023/05/12 08:52:01;;;;;;;8.20;5.47;;;26.20;1.00;;;;;;5029270;28;20528;-54
2023/05/12 08:54:28;;;;;;;7.77;4.60;;;26.30;1.00;;;;;;5026885;28;20473;-53
2023/05/12 08:56:55;;;;;;;8.17;5.20;;;26.50;1.00;;;;;;5028690;28;20787;-54
2023/05/12 08:59:23;;;;;;;5.80;5.20;;;26.60;1.00;;;;;;5027754;28;20460;-53
2023/05/12 09:01:49;;;;;;;6.03;4.60;;;26.40;1.00;;;;;;5026550;28;20449;-54
2023/05/12 09:04:16;;;;;;;8.20;5.03;;;26.20;99.90;;;;;;5028569;28;20517;-53
2023/05/12 09:06:44;;;;;;;6.20;5.00;;;26.40;99.90;;;;;;5026542;28;20449;-53
2023/05/12 09:09:13;;;;;;;5.53;5.03;;;26.70;99.90;;;;;;5029147;28;20516;-51
2023/05/12 09:11:40;;;;;;;8.70;4.80;;;26.90;99.90;;;;;;5026444;28;20470;-51
2023/05/12 09:14:14;;;;;;;8.40;4.80;;;27.20;99.90;;;;;;5029103;28;21045;-51
2023/05/12 09:16:45;;;;;;;6.57;4.83;;;27.30;99.90;;;;;;5027145;28;20488;-53
2023/05/12 09:19:10;;;;;;;7.30;5.17;;;27.40;99.90;;;;;;5027043;28;20436;-52
2023/05/12 09:21:36;;;;;;;5.07;4.67;;;27.60;99.90;;;;;;5028404;28;20438;-53
2023/05/12 09:24:07;;;;;;;5.03;4.50;;;27.50;99.90;;;;;;5025304;28;20693;-53
2023/05/12 09:26:47;;;;;;;10.97;4.90;;;27.10;99.90;;;;;;5027754;28;20195;-52
2023/05/12 09:29:14;;;;;;;6.77;5.00;;;27.10;99.90;;;;;;5029036;28;20445;-52
2023/05/12 09:31:48;;;;;;;7.63;5.00;;;27.10;99.90;;;;;;5025839;28;20434;-52
2023/05/12 09:34:14;;;;;;;4.80;4.03;;;27.40;99.90;;;;;;5024903;28;20769;-52
2023/05/12 09:36:40;;;;;;;6.13;4.90;;;27.50;99.90;;;;;;5025164;28;20480;-52
2023/05/12 09:39:07;;;;;;;5.67;4.40;;;27.70;99.90;;;;;;5025322;28;20196;-52
2023/05/12 09:41:37;;;;;;;12.03;4.83;;;27.70;99.90;;;;;;5024799;28;20437;-52
2023/05/12 09:44:04;;;;;;;4.73;4.30;;;27.50;99.90;;;;;;5027091;28;20921;-53
2023/05/12 09:46:29;;;;;;;5.13;4.73;;;27.40;99.90;;;;;;5025988;28;20442;-53
2023/05/12 09:48:56;;;;;;;7.27;4.53;;;27.60;99.90;;;;;;5027417;28;20479;-52
2023/05/12 09:51:22;;;;;;;4.77;4.27;;;27.70;99.90;;;;;;5026480;28;20228;-53
2023/05/12 09:53:48;;;;;;;6.03;4.32;;;27.90;99.90;;;;;;5027893;28;20421;-53
2023/05/12 09:56:15;;;;;;;43.77;31.83;;;28.10;99.90;;;;;;5024538;28;20621;-53
2023/05/12 09:58:49;;;;;;;7.00;6.30;;;28.00;99.90;;;;;;5028103;28;20218;-53
2023/05/12 10:01:20;;;;;;;6.90;4.60;;;28.30;99.90;;;;;;5026610;28;20517;-52
2023/05/12 10:03:50;;;;;;;5.57;4.43;;;28.60;99.90;;;;;;5025190;28;20470;-51
2023/05/12 10:06:23;;;;;;;5.93;4.43;;;28.70;99.90;;;;;;5023939;28;20449;-51
2023/05/12 10:09:02;;;;;;;9.37;4.83;;;28.80;99.90;;;;;;5025974;28;20934;-51
2023/05/12 10:11:28;;;;;;;6.93;4.53;;;28.60;99.90;;;;;;5025217;28;20924;-53
2023/05/12 10:13:55;;;;;;;5.37;4.30;;;28.50;99.90;;;;;;5024162;28;20481;-53
2023/05/12 10:16:21;;;;;;;8.30;4.53;;;28.70;99.90;;;;;;5023934;28;21275;-53
2023/05/12 10:18:48;;;;;;;7.57;4.20;;;28.80;99.90;;;;;;5025778;28;20869;-52
2023/05/12 10:21:15;;;;;;;4.60;4.10;;;28.80;99.90;;;;;;5025565;28;20199;-52
2023/05/12 10:23:43;;;;;;;4.53;4.13;;;29.20;99.90;;;;;;5025500;28;20490;-53
2023/05/12 10:26:10;;;;;;;6.73;4.53;;;29.10;99.90;;;;;;5027263;28;20499;-53
2023/05/12 10:28:36;;;;;;;4.53;4.13;;;29.00;99.90;;;;;;5022808;28;20535;-53
2023/05/12 10:31:04;;;;;;;4.30;4.00;;;28.30;99.90;;;;;;5026925;28;20577;-53
2023/05/12 10:33:30;;;;;;;7.80;4.20;;;27.10;99.90;;;;;;5023914;28;20447;-52
2023/05/12 10:35:56;;;;;;;6.00;4.18;;;26.10;99.90;;;;;;5029905;28;20439;-52
2023/05/12 10:38:21;;;;;;;7.60;4.70;;;25.40;99.90;;;;;;5026336;28;20871;-52
2023/05/12 10:41:02;;;;;;;6.00;4.20;;;25.20;99.90;;;;;;5026300;28;20441;-53
2023/05/12 10:43:49;;;;;;;7.53;4.13;;;26.10;99.90;;;;;;5024094;28;20195;-53
2023/05/12 10:46:20;;;;;;;7.23;4.43;;;27.10;99.90;;;;;;5022954;28;20983;-53
2023/05/12 10:48:55;;;;;;;5.27;4.17;;;26.80;99.90;;;;;;5025103;28;20433;-53
2023/05/12 10:51:28;;;;;;;11.13;3.93;;;26.70;99.90;;;;;;5028740;28;20485;-52
2023/05/12 10:54:04;;;;;;;7.10;4.30;;;26.50;99.90;;;;;;5024511;28;20462;-52
2023/05/12 10:56:37;;;;;;;6.20;4.53;;;26.70;99.90;;;;;;5022814;28;20896;-52
2023/05/12 10:59:22;;;;;;;5.37;4.03;;;25.90;99.90;;;;;;5026059;28;20469;-52
2023/05/12 11:02:15;;;;;;;5.97;4.40;;;26.30;99.90;;;;;;5027037;28;20451;-51
2023/05/12 11:04:59;;;;;;;5.83;4.63;;;26.60;99.90;;;;;;5026157;28;20445;-52
2023/05/12 11:07:27;;;;;;;5.67;4.87;;;26.30;99.90;;;;;;5024818;28;20464;-50
2023/05/12 11:09:54;;;;;;;5.30;4.80;;;25.80;99.90;;;;;;5025104;28;20778;-54
2023/05/12 11:12:20;;;;;;;6.13;5.00;;;25.80;99.90;;;;;;5023375;28;20988;-51
2023/05/12 11:14:46;;;;;;;9.27;5.07;;;25.90;99.90;;;;;;5024487;28;20565;-51
2023/05/12 11:17:13;;;;;;;5.87;5.27;;;25.50;99.90;;;;;;5026378;28;20544;-52
2023/05/12 11:19:43;;;;;;;7.13;4.30;;;25.10;99.90;;;;;;5019869;28;20192;-52
2023/05/12 11:22:10;;;;;;;14.00;5.70;;;25.10;99.90;;;;;;5018655;28;20430;-53
2023/05/12 11:24:37;;;;;;;5.83;4.40;;;25.30;99.90;;;;;;5018337;28;20526;-53
2023/05/12 11:27:04;;;;;;;10.03;4.83;;;25.30;99.90;;;;;;5022016;28;20438;-52
2023/05/12 11:29:30;;;;;;;5.30;4.30;;;25.20;99.90;;;;;;5020883;28;20445;-52
2023/05/12 11:31:57;;;;;;;5.20;4.70;;;25.30;99.90;;;;;;5020495;28;20434;-52
2023/05/12 11:34:25;;;;;;;7.33;4.40;;;25.00;99.90;;;;;;5018277;28;20448;-52
2023/05/12 11:36:53;;;;;;;8.33;4.57;;;24.50;99.90;;;;;;5018843;28;20954;-52
2023/05/12 11:39:20;;;;;;;8.23;4.70;;;24.00;99.90;;;;;;5021525;28;20448;-52
2023/05/12 11:41:47;;;;;;;6.50;4.80;;;24.80;99.90;;;;;;5019317;28;20924;-53
2023/05/12 11:44:20;;;;;;;5.57;4.00;;;26.20;99.90;;;;;;5020003;28;20468;-53
2023/05/12 11:47:15;;;;;;;6.17;4.50;;;27.70;99.90;;;;;;5018443;28;20450;-51
2023/05/12 11:49:46;;;;;;;5.63;4.20;;;29.10;99.90;;;;;;5017489;28;20489;-52
2023/05/12 11:52:13;;;;;;;4.87;4.10;;;29.00;99.90;;;;;;5021461;28;20449;-51
2023/05/12 11:54:38;;;;;;;5.50;4.13;;;28.60;99.90;;;;;;5025019;28;20434;-52
2023/05/12 11:57:04;;;;;;;4.17;3.67;;;28.70;99.90;;;;;;5025107;28;20445;-52
2023/05/12 11:59:34;;;;;;;7.03;4.53;;;28.90;99.90;;;;;;5023739;28;20233;-52
2023/05/12 12:02:03;;;;;;;4.67;4.17;;;28.00;99.90;;;;;;5025749;28;20434;-52
2023/05/12 12:04:37;;;;;;;7.67;3.90;;;27.10;99.90;;;;;;5028348;28;20447;-53
2023/05/12 12:07:07;;;;;;;5.20;4.03;;;26.20;99.90;;;;;;5029435;28;20984;-52
2023/05/12 12:09:39;;;;;;;6.90;4.27;;;25.40;99.90;;;;;;5036315;28;20437;-52
2023/05/12 12:12:06;;;;;;;5.20;4.10;;;25.80;99.90;;;;;;5033831;28;20442;-53
2023/05/12 12:14:34;;;;;;;7.10;4.10;;;26.90;99.90;;;;;;5023708;28;20482;-52
2023/05/12 12:17:00;;;;;;;8.67;4.10;;;28.10;99.90;;;;;;5035017;28;20891;-53
2023/05/12 12:19:26;;;;;;;9.07;4.53;;;29.00;99.90;;;;;;5034007;28;20461;-52
2023/05/12 12:21:53;;;;;;;5.80;3.90;;;29.60;99.90;;;;;;5027725;28;20450;-54
2023/05/12 12:24:18;;;;;;;3.70;3.40;;;30.30;99.90;;;;;;5027844;28;20446;-52
2023/05/12 12:26:44;;;;;;;5.77;3.93;;;30.70;99.90;;;;;;5026540;28;20450;-54
2023/05/12 12:29:09;;;;;;;4.73;3.77;;;30.70;99.90;;;;;;5028698;28;20184;-53
2023/05/12 12:31:35;;;;;;;7.67;3.90;;;30.80;99.90;;;;;;5026946;28;20187;-53
2023/05/12 12:34:02;;;;;;;6.53;3.60;;;30.80;99.90;;;;;;5028064;28;20223;-53
2023/05/12 12:36:28;;;;;;;6.83;3.23;;;30.70;99.90;;;;;;5026747;28;20219;-54
2023/05/12 12:38:53;;;;;;;5.03;4.00;;;30.70;99.90;;;;;;5031742;28;20436;-53
2023/05/12 12:41:19;;;;;;;3.60;3.30;;;30.70;99.90;;;;;;5029598;28;20183;-53
2023/05/12 12:43:44;;;;;;;5.40;3.60;;;30.60;99.90;;;;;;5030013;28;20183;-53
2023/05/12 12:46:10;;;;;;;5.80;3.57;;;30.80;99.90;;;;;;5029885;28;20625;-52